createdAt,value
2018-02-07T00:00:05.211Z,97399.79
2018-02-07T00:02:32.891Z,97397.37
2018-02-07T00:05:00.756Z,97395.11
2018-02-07T00:07:28.430Z,97386.25
2018-02-07T00:09:56.124Z,97387.31
2018-02-07T00:12:23.842Z,97385.81
2018-02-07T00:14:51.517Z,97382.80
2018-02-07T00:17:19.230Z,97379.24
2018-02-07T00:19:46.892Z,97372.94
2018-02-07T00:22:14.566Z,97373.44
2018-02-07T00:24:42.287Z,97370.22
2018-02-07T00:27:09.967Z,97374.14
2018-02-07T00:29:37.913Z,97377.08
2018-02-07T00:32:05.590Z,97377.73
2018-02-07T00:34:33.282Z,97379.77
2018-02-07T00:37:00.979Z,97379.28
2018-02-07T00:39:28.660Z,97380.63
2018-02-07T00:41:56.726Z,97380.77
2018-02-07T00:44:24.411Z,97381.42
2018-02-07T00:46:52.100Z,97376.32
2018-02-07T00:49:19.788Z,97374.84
2018-02-07T00:51:47.472Z,97378.44
2018-02-07T00:54:15.198Z,97374.19
2018-02-07T00:56:42.867Z,97377.06
2018-02-07T00:59:10.548Z,97379.50
2018-02-07T01:01:38.252Z,97372.81
2018-02-07T01:04:05.926Z,97377.33
2018-02-07T01:06:33.631Z,97375.28
2018-02-07T01:09:01.317Z,97377.27
2018-02-07T01:11:29.003Z,97373.10
2018-02-07T01:13:56.704Z,97378.48
2018-02-07T01:16:24.400Z,97374.98
2018-02-07T01:18:52.099Z,97378.84
2018-02-07T01:21:19.788Z,97377.73
2018-02-07T01:23:47.459Z,97377.86
2018-02-07T01:26:15.148Z,97375.39
2018-02-07T01:28:42.833Z,97372.05
2018-02-07T01:31:10.557Z,97376.63
2018-02-07T01:33:38.223Z,97374.03
2018-02-07T01:36:05.904Z,97370.40
2018-02-07T01:38:33.606Z,97364.69
2018-02-07T01:41:01.281Z,97364.37
2018-02-07T01:43:29.183Z,97361.28
2018-02-07T01:45:56.872Z,97362.31
2018-02-07T01:48:24.560Z,97363.22
2018-02-07T01:50:52.265Z,97349.55
2018-02-07T01:53:19.939Z,97348.85
2018-02-07T01:55:47.807Z,97351.24
2018-02-07T01:58:15.644Z,97346.92
2018-02-07T02:00:43.307Z,97350.71
2018-02-07T02:03:11.012Z,97352.31
2018-02-07T02:05:38.684Z,97350.19
2018-02-07T02:08:06.624Z,97354.64
2018-02-07T02:10:34.307Z,97359.52
2018-02-07T02:13:01.991Z,97355.97
2018-02-07T02:15:29.691Z,97364.91
2018-02-07T02:17:57.375Z,97362.17
2018-02-07T02:20:25.240Z,97362.59
2018-02-07T02:22:52.911Z,97359.64
2018-02-07T02:25:20.568Z,97358.19
2018-02-07T02:27:48.257Z,97361.07
2018-02-07T02:30:15.970Z,97359.52
2018-02-07T02:32:43.699Z,97372.20
2018-02-07T02:35:11.467Z,97372.65
2018-02-07T02:37:39.135Z,97373.30
2018-02-07T02:40:06.856Z,97372.90
2018-02-07T02:42:34.530Z,97371.22
2018-02-07T02:45:02.487Z,97365.84
2018-02-07T02:47:30.165Z,97376.48
2018-02-07T02:49:57.838Z,97370.45
2018-02-07T02:52:25.545Z,97370.90
2018-02-07T02:54:53.203Z,97376.48
2018-02-07T02:57:21.140Z,97374.10
2018-02-07T02:59:48.817Z,97379.53
2018-02-07T03:02:16.501Z,97380.85
2018-02-07T03:04:44.203Z,97380.48
2018-02-07T03:07:11.873Z,97387.91
2018-02-07T03:09:39.923Z,97384.50
2018-02-07T03:12:07.621Z,97384.94
2018-02-07T03:14:35.297Z,97385.13
2018-02-07T03:17:03.011Z,97385.94
2018-02-07T03:19:30.687Z,97385.65
2018-02-07T03:21:58.414Z,97379.51
2018-02-07T03:24:26.092Z,97376.08
2018-02-07T03:26:53.785Z,97375.69
2018-02-07T03:29:21.488Z,97376.08
2018-02-07T03:31:49.167Z,97381.66
2018-02-07T03:34:17.008Z,97384.41
2018-02-07T03:36:44.669Z,97385.48
2018-02-07T03:39:12.362Z,97378.56
2018-02-07T03:41:40.062Z,97386.22
2018-02-07T03:44:07.742Z,97392.59
2018-02-07T03:46:36.282Z,97389.17
2018-02-07T03:49:03.957Z,97388.41
2018-02-07T03:51:31.636Z,97384.02
2018-02-07T03:53:59.335Z,97382.41
2018-02-07T03:56:27.015Z,97380.05
2018-02-07T03:58:54.898Z,97386.27
2018-02-07T04:01:22.576Z,97377.08
2018-02-07T04:03:50.261Z,97385.12
2018-02-07T04:06:17.969Z,97378.55
2018-02-07T04:08:45.652Z,97381.47
2018-02-07T04:11:13.621Z,97379.30
2018-02-07T04:13:41.325Z,97376.80
2018-02-07T04:16:08.992Z,97375.39
2018-02-07T04:18:36.762Z,97370.06
2018-02-07T04:21:04.449Z,97365.08
2018-02-07T04:23:32.756Z,97358.70
2018-02-07T04:26:00.438Z,97366.40
2018-02-07T04:28:28.174Z,97364.75
2018-02-07T04:30:55.997Z,97363.09
2018-02-07T04:33:23.684Z,97357.00
2018-02-07T04:35:51.592Z,97359.74
2018-02-07T04:38:19.287Z,97361.08
2018-02-07T04:40:46.971Z,97363.86
2018-02-07T04:43:14.703Z,97367.70
2018-02-07T04:45:42.378Z,97369.28
2018-02-07T04:48:10.314Z,97364.39
2018-02-07T04:50:37.992Z,97364.12
2018-02-07T04:53:05.655Z,97372.44
2018-02-07T04:55:33.366Z,97366.67
2018-02-07T04:58:01.215Z,97381.75
2018-02-07T05:00:29.120Z,97376.15
2018-02-07T05:02:56.828Z,97375.23
2018-02-07T05:05:24.500Z,97366.08
2018-02-07T05:07:52.203Z,97366.14
2018-02-07T05:10:19.886Z,97362.54
2018-02-07T05:12:47.790Z,97358.70
2018-02-07T05:15:15.466Z,97364.76
2018-02-07T05:17:43.143Z,97371.05
2018-02-07T05:20:10.847Z,97374.03
2018-02-07T05:22:38.540Z,97379.58
2018-02-07T05:25:06.561Z,97372.73
2018-02-07T05:27:34.323Z,97372.89
2018-02-07T05:30:01.999Z,97372.74
2018-02-07T05:32:29.689Z,97367.56
2018-02-07T05:34:57.366Z,97370.59
2018-02-07T05:37:25.281Z,97366.89
2018-02-07T05:39:52.947Z,97364.61
2018-02-07T05:42:20.699Z,97367.56
2018-02-07T05:44:48.414Z,97365.56
2018-02-07T05:47:16.095Z,97363.34
2018-02-07T05:49:43.914Z,97364.23
2018-02-07T05:52:11.599Z,97365.66
2018-02-07T05:54:39.365Z,97361.13
2018-02-07T05:57:07.076Z,97366.08
2018-02-07T05:59:34.747Z,97365.48
2018-02-07T06:02:02.608Z,97370.27
2018-02-07T06:04:30.282Z,97369.28
2018-02-07T06:06:57.963Z,97364.11
2018-02-07T06:09:25.674Z,97361.80
2018-02-07T06:11:53.338Z,97367.50
2018-02-07T06:14:21.044Z,97363.03
2018-02-07T06:16:48.766Z,97365.59
2018-02-07T06:19:16.439Z,97369.25
2018-02-07T06:21:44.147Z,97370.02
2018-02-07T06:24:11.843Z,97378.53
2018-02-07T06:26:39.566Z,97388.02
2018-02-07T06:29:07.239Z,97382.59
2018-02-07T06:31:34.917Z,97381.02
2018-02-07T06:34:02.628Z,97383.02
2018-02-07T06:36:30.339Z,97393.80
2018-02-07T06:38:58.429Z,97399.59
2018-02-07T06:41:26.111Z,97396.02
2018-02-07T06:43:53.781Z,97399.00
2018-02-07T06:46:21.478Z,97414.04
2018-02-07T06:48:49.173Z,97412.67
2018-02-07T06:51:17.173Z,97418.30
2018-02-07T06:53:44.835Z,97416.10
2018-02-07T06:56:13.996Z,97416.98
2018-02-07T06:58:41.712Z,97423.53
2018-02-07T07:01:09.376Z,97422.61
2018-02-07T07:03:37.423Z,97425.02
2018-02-07T07:06:05.107Z,97427.64
2018-02-07T07:08:32.790Z,97430.14
2018-02-07T07:11:00.525Z,97431.63
2018-02-07T07:13:28.221Z,97434.84
2018-02-07T07:15:55.937Z,97439.34
2018-02-07T07:18:23.622Z,97438.68
2018-02-07T07:20:51.329Z,97438.16
2018-02-07T07:23:19.044Z,97442.19
2018-02-07T07:25:46.726Z,97450.26
2018-02-07T07:28:14.985Z,97452.66
2018-02-07T07:30:42.671Z,97453.56
2018-02-07T07:33:10.386Z,97453.99
2018-02-07T07:35:38.508Z,97452.11
2018-02-07T07:38:06.196Z,97452.69
2018-02-07T07:40:34.211Z,97462.83
2018-02-07T07:43:01.892Z,97463.30
2018-02-07T07:45:29.566Z,97464.84
2018-02-07T07:47:57.264Z,97463.84
2018-02-07T07:50:24.939Z,97467.30
2018-02-07T07:52:52.683Z,97469.77
2018-02-07T07:55:20.374Z,97476.63
2018-02-07T07:57:48.036Z,97481.27
2018-02-07T08:00:15.754Z,97478.74
2018-02-07T08:02:43.426Z,97481.02
2018-02-07T08:05:11.342Z,97490.05
2018-02-07T08:07:39.023Z,97488.05
2018-02-07T08:10:06.685Z,97492.44
2018-02-07T08:12:34.372Z,97504.44
2018-02-07T08:15:02.046Z,97509.48
2018-02-07T08:17:29.972Z,97492.77
2018-02-07T08:19:57.644Z,97492.76
2018-02-07T08:22:25.331Z,97496.69
2018-02-07T08:24:53.048Z,97498.23
2018-02-07T08:27:20.721Z,97503.33
2018-02-07T08:29:48.581Z,97508.59
2018-02-07T08:32:16.346Z,97509.28
2018-02-07T08:34:44.008Z,97506.42
2018-02-07T08:37:11.716Z,97506.08
2018-02-07T08:39:39.395Z,97511.30
2018-02-07T08:42:07.125Z,97518.18
2018-02-07T08:44:34.797Z,97519.53
2018-02-07T08:47:02.519Z,97526.70
2018-02-07T08:49:30.214Z,97524.41
2018-02-07T08:51:57.903Z,97520.58
2018-02-07T08:54:25.610Z,97520.83
2018-02-07T08:56:53.306Z,97525.58
2018-02-07T08:59:21.623Z,97524.13
2018-02-07T09:01:49.377Z,97529.91
2018-02-07T09:04:17.053Z,97526.30
2018-02-07T09:06:45.143Z,97523.67
2018-02-07T09:09:12.858Z,97518.94
2018-02-07T09:11:40.546Z,97516.16
2018-02-07T09:14:08.249Z,97524.07
2018-02-07T09:16:35.935Z,97518.81
2018-02-07T09:19:04.281Z,97524.77
2018-02-07T09:21:32.079Z,97525.02
2018-02-07T09:23:59.917Z,97530.97
2018-02-07T09:26:27.639Z,97536.03
2018-02-07T09:28:55.323Z,97542.24
2018-02-07T09:31:23.109Z,97543.66
2018-02-07T09:33:50.815Z,97546.09
2018-02-07T09:36:18.505Z,97545.58
2018-02-07T09:38:46.200Z,97538.47
2018-02-07T09:41:13.882Z,97536.35
2018-02-07T09:43:41.752Z,97535.42
2018-02-07T09:46:09.430Z,97532.03
2018-02-07T09:48:37.112Z,97540.30
2018-02-07T09:51:04.819Z,97535.23
2018-02-07T09:53:32.496Z,97535.35
2018-02-07T09:56:00.503Z,97534.62
2018-02-07T09:58:28.184Z,97534.41
2018-02-07T10:00:55.879Z,97530.49
2018-02-07T10:03:23.592Z,97533.38
2018-02-07T10:05:51.648Z,97536.69
2018-02-07T10:08:19.454Z,97532.52
2018-02-07T10:10:47.136Z,97533.17
2018-02-07T10:13:15.124Z,97541.62
2018-02-07T10:15:42.915Z,97537.23
2018-02-07T10:18:10.581Z,97537.48
2018-02-07T10:20:38.708Z,97543.42
2018-02-07T10:23:06.864Z,97543.27
2018-02-07T10:25:35.018Z,97542.78
2018-02-07T10:28:02.767Z,97542.79
2018-02-07T10:30:30.475Z,97538.19
2018-02-07T10:32:58.335Z,97537.70
2018-02-07T10:35:26.015Z,97534.66
2018-02-07T10:37:53.714Z,97533.01
2018-02-07T10:40:21.435Z,97536.75
2018-02-07T10:42:49.131Z,97525.91
2018-02-07T10:45:17.263Z,97528.18
2018-02-07T10:47:44.943Z,97520.98
2018-02-07T10:50:12.615Z,97518.38
2018-02-07T10:52:40.769Z,97516.11
2018-02-07T10:55:08.637Z,97510.70
2018-02-07T10:57:37.923Z,97515.09
2018-02-07T11:00:05.760Z,97505.97
2018-02-07T11:02:33.443Z,97504.92
2018-02-07T11:05:01.155Z,97499.38
2018-02-07T11:07:28.849Z,97496.89
2018-02-07T11:09:56.746Z,97504.23
2018-02-07T11:12:24.425Z,97501.70
2018-02-07T11:14:52.247Z,97496.80
2018-02-07T11:17:19.933Z,97490.66
2018-02-07T11:19:48.440Z,97487.73
2018-02-07T11:22:16.148Z,97481.42
2018-02-07T11:24:44.167Z,97489.52
2018-02-07T11:27:11.855Z,97492.53
2018-02-07T11:29:39.564Z,97495.64
2018-02-07T11:32:07.266Z,97492.70
2018-02-07T11:34:35.269Z,97484.95
2018-02-07T11:37:02.962Z,97483.08
2018-02-07T11:39:30.666Z,97477.12
2018-02-07T11:41:58.365Z,97476.42
2018-02-07T11:44:26.071Z,97474.44
2018-02-07T11:46:53.782Z,97473.53
2018-02-07T11:49:21.455Z,97475.77
2018-02-07T11:51:49.135Z,97467.81
2018-02-07T11:54:17.085Z,97465.00
2018-02-07T11:56:44.767Z,97470.75
2018-02-07T11:59:13.079Z,97471.29
2018-02-07T12:01:40.766Z,97463.66
2018-02-07T12:04:08.451Z,97466.67
2018-02-07T12:06:36.155Z,97469.89
2018-02-07T12:09:04.020Z,97471.25
2018-02-07T12:11:32.006Z,97463.77
2018-02-07T12:13:59.687Z,97469.67
2018-02-07T12:16:27.390Z,97463.28
2018-02-07T12:18:55.095Z,97460.77
2018-02-07T12:21:22.826Z,97462.90
2018-02-07T12:23:51.421Z,97471.03
2018-02-07T12:26:19.115Z,97467.00
2018-02-07T12:28:46.862Z,97466.05
2018-02-07T12:31:14.581Z,97468.21
2018-02-07T12:33:42.261Z,97463.95
2018-02-07T12:36:09.979Z,97466.20
2018-02-07T12:38:37.727Z,97459.02
2018-02-07T12:41:05.422Z,97463.41
2018-02-07T12:43:33.122Z,97462.90
2018-02-07T12:46:00.801Z,97461.27
2018-02-07T12:48:28.795Z,97467.83
2018-02-07T12:50:56.526Z,97468.62
2018-02-07T12:53:24.412Z,97472.27
2018-02-07T12:55:52.594Z,97480.13
2018-02-07T12:58:20.267Z,97471.05
2018-02-07T13:00:48.026Z,97466.55
2018-02-07T13:03:15.711Z,97470.22
2018-02-07T13:05:43.410Z,97471.85
2018-02-07T13:08:11.130Z,97473.19
2018-02-07T13:10:38.835Z,97476.00
2018-02-07T13:13:07.022Z,97474.05
2018-02-07T13:15:34.702Z,97471.26
2018-02-07T13:18:02.368Z,97472.60
2018-02-07T13:20:30.080Z,97470.48
2018-02-07T13:22:58.158Z,97463.69
2018-02-07T13:25:26.215Z,97465.42
2018-02-07T13:27:53.900Z,97461.42
2018-02-07T13:30:21.580Z,97461.56
2018-02-07T13:32:49.291Z,97463.27
2018-02-07T13:35:16.993Z,97465.67
2018-02-07T13:37:45.444Z,97465.38
2018-02-07T13:40:13.140Z,97465.08
2018-02-07T13:42:40.861Z,97463.14
2018-02-07T13:45:08.576Z,97470.08
2018-02-07T13:47:36.274Z,97470.75
2018-02-07T13:50:03.994Z,97472.34
2018-02-07T13:52:31.704Z,97471.94
2018-02-07T13:54:59.654Z,97466.29
2018-02-07T13:57:27.347Z,97468.80
2018-02-07T13:59:54.956Z,97472.69
2018-02-07T14:02:22.885Z,97471.75
2018-02-07T14:04:50.571Z,97483.97
2018-02-07T14:07:18.191Z,97478.27
2018-02-07T14:09:45.897Z,97477.38
2018-02-07T14:12:13.597Z,97483.22
2018-02-07T14:14:41.882Z,97474.78
2018-02-07T14:17:09.563Z,97470.70
2018-02-07T14:19:37.518Z,97468.95
2018-02-07T14:22:05.213Z,97478.98
2018-02-07T14:24:33.345Z,97471.55
2018-02-07T14:27:00.983Z,97474.48
2018-02-07T14:29:28.576Z,97479.57
2018-02-07T14:31:56.407Z,97476.48
2018-02-07T14:34:24.000Z,97474.13
2018-02-07T14:36:51.599Z,97479.82
2018-02-07T14:39:19.228Z,97478.30
2018-02-07T14:42:01.023Z,97488.22
2018-02-07T14:44:29.982Z,97495.17
2018-02-07T14:46:57.605Z,97493.44
2018-02-07T14:49:25.291Z,97491.28
2018-02-07T14:51:52.911Z,97484.43
2018-02-07T14:54:20.959Z,97488.33
2018-02-07T14:56:48.718Z,97481.12
2018-02-07T14:59:16.390Z,97480.98
2018-02-07T15:01:44.009Z,97482.30
2018-02-07T15:04:11.787Z,97487.80
2018-02-07T15:06:39.481Z,97492.61
2018-02-07T15:09:07.511Z,97498.74
2018-02-07T15:11:35.182Z,97500.09
2018-02-07T15:14:02.912Z,97506.52
2018-02-07T15:16:30.731Z,97505.43
2018-02-07T15:18:58.431Z,97509.17
2018-02-07T15:21:27.003Z,97505.29
2018-02-07T15:23:55.063Z,97512.66
2018-02-07T15:26:22.728Z,97507.59
2018-02-07T15:28:50.368Z,97513.19
2018-02-07T15:31:18.189Z,97512.66
2018-02-07T15:33:45.903Z,97512.38
2018-02-07T15:36:13.497Z,97514.25
2018-02-07T15:38:41.208Z,97511.99
2018-02-07T15:41:08.823Z,97513.44
2018-02-07T15:43:36.495Z,97516.67
2018-02-07T15:46:04.533Z,97524.25
2018-02-07T15:48:32.223Z,97528.80
2018-02-07T15:50:59.921Z,97534.53
2018-02-07T15:53:27.705Z,97533.58
2018-02-07T15:55:55.438Z,97539.94
2018-02-07T15:58:23.174Z,97539.42
2018-02-07T16:00:50.918Z,97535.92
2018-02-07T16:03:18.601Z,97536.82
2018-02-07T16:05:46.326Z,97532.27
2018-02-07T16:08:14.003Z,97542.47
2018-02-07T16:10:41.853Z,97548.52
2018-02-07T16:13:09.551Z,97551.36
2018-02-07T16:15:37.251Z,97553.70
2018-02-07T16:18:05.020Z,97549.97
2018-02-07T16:20:32.703Z,97553.38
2018-02-07T16:23:01.075Z,97550.55
2018-02-07T16:25:29.236Z,97552.77
2018-02-07T16:27:56.915Z,97554.87
2018-02-07T16:30:24.600Z,97551.61
2018-02-07T16:32:52.372Z,97556.80
2018-02-07T16:35:20.305Z,97561.55
2018-02-07T16:37:47.980Z,97568.46
2018-02-07T16:40:15.644Z,97573.15
2018-02-07T16:42:43.361Z,97576.06
2018-02-07T16:45:11.046Z,97579.03
2018-02-07T16:47:38.984Z,97582.37
2018-02-07T16:50:06.646Z,97585.55
2018-02-07T16:52:34.311Z,97588.84
2018-02-07T16:55:02.435Z,97594.73
2018-02-07T16:57:30.119Z,97594.75
2018-02-07T16:59:58.318Z,97601.88
2018-02-07T17:02:26.011Z,97607.44
2018-02-07T17:04:53.707Z,97612.05
2018-02-07T17:07:21.403Z,97616.53
2018-02-07T17:09:49.087Z,97614.94
2018-02-07T17:12:17.188Z,97611.52
2018-02-07T17:14:44.874Z,97613.75
2018-02-07T17:17:12.556Z,97627.75
2018-02-07T17:19:40.248Z,97621.91
2018-02-07T17:22:07.923Z,97631.59
2018-02-07T17:24:36.223Z,97632.19
2018-02-07T17:27:03.903Z,97636.18
2018-02-07T17:29:31.577Z,97641.84
2018-02-07T17:31:59.264Z,97645.02
2018-02-07T17:34:26.973Z,97640.21
2018-02-07T17:36:54.823Z,97642.78
2018-02-07T17:39:22.488Z,97652.09
2018-02-07T17:41:50.159Z,97653.11
2018-02-07T17:44:17.875Z,97650.71
2018-02-07T17:46:45.552Z,97655.72
2018-02-07T17:49:13.256Z,97656.33
2018-02-07T17:51:40.938Z,97656.63
2018-02-07T17:54:08.628Z,97655.81
2018-02-07T17:56:36.350Z,97652.87
2018-02-07T17:59:04.015Z,97653.34
2018-02-07T18:01:31.859Z,97663.17
2018-02-07T18:03:59.547Z,97656.94
2018-02-07T18:06:27.225Z,97653.59
2018-02-07T18:08:54.928Z,97657.47
2018-02-07T18:11:22.614Z,97662.87
2018-02-07T18:13:50.304Z,97659.89
2018-02-07T18:16:17.985Z,97661.08
2018-02-07T18:18:45.912Z,97667.00
2018-02-07T18:21:13.669Z,97667.50
2018-02-07T18:23:41.347Z,97671.16
2018-02-07T18:26:09.029Z,97678.14
2018-02-07T18:28:36.707Z,97672.06
2018-02-07T18:31:04.400Z,97669.80
2018-02-07T18:33:32.075Z,97676.28
2018-02-07T18:36:00.079Z,97676.77
2018-02-07T18:38:27.834Z,97676.37
2018-02-07T18:40:55.503Z,97674.91
2018-02-07T18:43:23.221Z,97678.98
2018-02-07T18:45:50.920Z,97679.85
2018-02-07T18:48:19.111Z,97686.52
2018-02-07T18:50:46.781Z,97690.61
2018-02-07T18:53:14.819Z,97688.81
2018-02-07T18:55:42.500Z,97687.22
2018-02-07T18:58:10.404Z,97685.28
2018-02-07T19:00:38.128Z,97686.18
2018-02-07T19:03:05.823Z,97691.09
2018-02-07T19:05:34.452Z,97690.06
2018-02-07T19:08:02.350Z,97697.94
2018-02-07T19:10:30.763Z,97701.16
2018-02-07T19:12:58.810Z,97695.47
2018-02-07T19:15:26.684Z,97698.98
2018-02-07T19:17:54.502Z,97697.61
2018-02-07T19:20:22.199Z,97699.78
2018-02-07T19:22:49.896Z,97700.48
2018-02-07T19:25:17.630Z,97703.81
2018-02-07T19:27:45.350Z,97701.67
2018-02-07T19:30:13.044Z,97702.26
2018-02-07T19:32:40.746Z,97713.98
2018-02-07T19:35:08.489Z,97704.94
2018-02-07T19:37:36.161Z,97705.30
2018-02-07T19:40:04.112Z,97707.65
2018-02-07T19:42:32.044Z,97706.34
2018-02-07T19:44:59.722Z,97705.12
2018-02-07T19:47:27.442Z,97704.90
2018-02-07T19:49:55.126Z,97714.64
2018-02-07T19:52:22.827Z,97720.78
2018-02-07T19:54:50.510Z,97711.84
2018-02-07T19:57:18.335Z,97710.71
2018-02-07T19:59:46.016Z,97706.99
2018-02-07T20:02:13.736Z,97709.28
2018-02-07T20:04:41.436Z,97716.80
2018-02-07T20:07:09.120Z,97716.58
2018-02-07T20:09:36.829Z,97722.20
2018-02-07T20:12:04.513Z,97724.63
2018-02-07T20:14:32.587Z,97720.48
2018-02-07T20:17:00.267Z,97725.21
2018-02-07T20:19:28.004Z,97718.72
2018-02-07T20:21:55.710Z,97729.95
2018-02-07T20:24:23.397Z,97729.16
2018-02-07T20:26:51.097Z,97730.16
2018-02-07T20:29:18.779Z,97735.77
2018-02-07T20:31:46.489Z,97736.75
2018-02-07T20:34:14.348Z,97744.02
2018-02-07T20:36:42.075Z,97743.78
2018-02-07T20:39:09.764Z,97745.64
2018-02-07T20:41:37.442Z,97747.08
2018-02-07T20:44:05.143Z,97749.56
2018-02-07T20:46:32.836Z,97753.81
2018-02-07T20:49:00.555Z,97752.00
2018-02-07T20:51:28.237Z,97754.34
2018-02-07T20:53:55.945Z,97758.86
2018-02-07T20:56:23.635Z,97758.08
2018-02-07T20:58:51.326Z,97752.88
2018-02-07T21:01:19.025Z,97749.95
2018-02-07T21:03:46.704Z,97750.38
2018-02-07T21:06:14.436Z,97755.14
2018-02-07T21:08:42.120Z,97755.65
2018-02-07T21:11:09.834Z,97754.15
2018-02-07T21:13:37.534Z,97764.43
2018-02-07T21:18:32.612Z,97761.30
2018-02-07T21:21:00.286Z,97763.16
2018-02-07T21:23:27.996Z,97763.92
2018-02-07T21:25:55.706Z,97773.45
2018-02-07T21:28:23.413Z,97768.05
2018-02-07T21:30:51.083Z,97773.54
2018-02-07T21:33:18.865Z,97772.16
2018-02-07T21:35:46.555Z,97779.16
2018-02-07T21:38:14.233Z,97775.23
2018-02-07T21:40:41.933Z,97782.90
2018-02-07T21:43:09.973Z,97784.61
2018-02-07T21:45:37.685Z,97778.34
2018-02-07T21:48:05.351Z,97791.58
2018-02-07T21:50:33.239Z,97790.42
2018-02-07T21:53:00.914Z,97786.50
2018-02-07T21:55:28.635Z,97796.71
2018-02-07T21:57:56.675Z,97780.69
2018-02-07T22:00:25.096Z,97796.08
2018-02-07T22:02:52.794Z,97795.72
2018-02-07T22:05:20.469Z,97794.65
2018-02-07T22:07:48.305Z,97799.80
2018-02-07T22:10:15.971Z,97800.34
2018-02-07T22:12:43.719Z,97799.95
2018-02-07T22:15:11.430Z,97801.02
2018-02-07T22:17:39.107Z,97797.32
2018-02-07T22:20:06.871Z,97801.52
2018-02-07T22:22:34.590Z,97805.42
2018-02-07T22:25:02.470Z,97809.85
2018-02-07T22:27:30.145Z,97811.00
2018-02-07T22:29:57.843Z,97813.73
2018-02-07T22:32:25.546Z,97813.72
2018-02-07T22:34:53.211Z,97820.27
2018-02-07T22:37:20.903Z,97818.30
2018-02-07T22:39:48.585Z,97821.49
2018-02-07T22:42:16.488Z,97810.25
2018-02-07T22:44:44.153Z,97816.78
2018-02-07T22:47:11.821Z,97815.67
2018-02-07T22:49:39.512Z,97819.56
2018-02-07T22:52:07.179Z,97827.95
2018-02-07T22:54:34.872Z,97829.41
2018-02-07T22:57:02.535Z,97830.11
2018-02-07T22:59:30.640Z,97836.05
2018-02-07T23:01:58.307Z,97842.39
2018-02-07T23:04:25.999Z,97842.20
2018-02-07T23:06:53.708Z,97840.11
2018-02-07T23:09:21.388Z,97839.70
2018-02-07T23:11:49.084Z,97840.44
2018-02-07T23:14:16.766Z,97834.31
2018-02-07T23:16:44.491Z,97838.55
2018-02-07T23:19:12.169Z,97837.45
2018-02-07T23:21:39.839Z,97832.12
2018-02-07T23:24:07.540Z,97834.19
2018-02-07T23:26:35.215Z,97830.48
2018-02-07T23:29:02.924Z,97825.91
2018-02-07T23:31:30.605Z,97830.13
2018-02-07T23:33:58.531Z,97829.42
2018-02-07T23:36:26.215Z,97837.61
2018-02-07T23:38:53.909Z,97842.89
2018-02-07T23:41:21.596Z,97843.39
2018-02-07T23:43:49.276Z,97840.64
2018-02-07T23:46:16.978Z,97838.66
2018-02-07T23:48:44.662Z,97843.65
2018-02-07T23:51:12.358Z,97840.33
2018-02-07T23:53:40.061Z,97840.56
2018-02-07T23:56:07.728Z,97837.99
2018-02-07T23:58:35.449Z,97838.63
